createdAt,value
2018-05-10T00:02:07.380Z,79.80
2018-05-10T00:04:34.899Z,80.50
2018-05-10T00:07:02.459Z,81.20
2018-05-10T00:09:29.976Z,81.50
2018-05-10T00:11:57.652Z,80.80
2018-05-10T00:14:25.212Z,80.60
2018-05-10T00:16:52.736Z,80.40
2018-05-10T00:19:21.008Z,80.00
2018-05-10T00:21:49.295Z,80.20
2018-05-10T00:24:17.696Z,80.50
2018-05-10T00:26:45.152Z,80.50
2018-05-10T00:29:12.665Z,80.30
2018-05-10T00:31:40.178Z,80.80
2018-05-10T00:34:07.708Z,81.40
2018-05-10T00:36:35.233Z,81.90
2018-05-10T00:39:02.751Z,82.00
2018-05-10T00:41:30.283Z,82.00
2018-05-10T00:43:57.823Z,81.50
2018-05-10T00:46:26.136Z,80.80
2018-05-10T00:48:53.683Z,80.80
2018-05-10T00:51:21.265Z,81.00
2018-05-10T00:53:48.820Z,81.20
2018-05-10T00:56:16.334Z,81.10
2018-05-10T00:58:44.708Z,80.90
2018-05-10T01:01:12.983Z,80.60
2018-05-10T01:03:41.269Z,80.70
2018-05-10T01:06:08.779Z,80.70
2018-05-10T01:08:36.307Z,80.80
2018-05-10T01:11:03.873Z,80.60
2018-05-10T01:13:31.424Z,80.70
2018-05-10T01:15:58.939Z,80.70
2018-05-10T01:18:27.245Z,80.70
2018-05-10T01:20:54.799Z,80.60
2018-05-10T01:23:22.379Z,81.10
2018-05-10T01:25:49.907Z,81.70
2018-05-10T01:28:17.484Z,81.50
2018-05-10T01:30:45.026Z,81.70
2018-05-10T01:33:12.564Z,81.80
2018-05-10T01:35:52.909Z,81.30
2018-05-10T01:38:20.427Z,81.30
2018-05-10T01:40:47.982Z,81.70
2018-05-10T01:43:15.551Z,81.20
2018-05-10T01:45:43.068Z,81.90
2018-05-10T01:48:10.593Z,82.10
2018-05-10T01:50:38.112Z,82.10
2018-05-10T01:53:05.637Z,81.60
2018-05-10T01:55:33.157Z,81.40
2018-05-10T01:58:00.693Z,81.40
2018-05-10T02:00:28.212Z,81.50
2018-05-10T02:02:55.789Z,81.60
2018-05-10T02:05:23.348Z,81.30
2018-05-10T02:07:50.864Z,81.70
2018-05-10T02:10:19.162Z,81.40
2018-05-10T02:12:46.680Z,81.40
2018-05-10T02:15:14.288Z,81.50
2018-05-10T02:17:41.824Z,81.50
2018-05-10T02:20:09.359Z,81.70
2018-05-10T02:22:36.876Z,81.00
2018-05-10T02:25:04.418Z,80.30
2018-05-10T02:27:31.931Z,79.60
2018-05-10T02:29:59.465Z,79.30
2018-05-10T02:32:26.981Z,79.20
2018-05-10T02:34:54.500Z,78.80
2018-05-10T02:37:22.116Z,79.30
2018-05-10T02:39:49.621Z,78.60
2018-05-10T02:42:17.923Z,79.10
2018-05-10T02:44:45.494Z,79.00
2018-05-10T02:47:13.065Z,79.50
2018-05-10T02:49:40.610Z,78.40
2018-05-10T02:52:08.148Z,79.60
2018-05-10T02:54:36.436Z,79.70
2018-05-10T02:57:03.951Z,79.60
2018-05-10T02:59:31.536Z,79.40
2018-05-10T03:01:59.829Z,80.50
2018-05-10T03:04:27.358Z,80.30
2018-05-10T03:06:55.643Z,80.30
2018-05-10T03:09:23.928Z,79.30
2018-05-10T03:11:51.491Z,79.30
2018-05-10T03:14:19.035Z,79.60
2018-05-10T03:16:47.325Z,79.00
2018-05-10T03:19:14.885Z,78.90
2018-05-10T03:21:42.429Z,78.80
2018-05-10T03:24:09.939Z,80.00
2018-05-10T03:26:37.562Z,79.50
2018-05-10T03:29:05.118Z,81.00
2018-05-10T03:31:32.656Z,80.50
2018-05-10T03:34:00.943Z,81.60
2018-05-10T03:36:28.491Z,81.60
2018-05-10T03:38:56.772Z,70.20
2018-05-10T03:41:24.280Z,70.20
2018-05-10T03:43:52.007Z,74.10
2018-05-10T03:46:20.508Z,79.70
2018-05-10T03:48:48.050Z,79.60
2018-05-10T03:51:15.568Z,81.80
2018-05-10T03:53:43.152Z,80.60
2018-05-10T03:56:10.672Z,81.70
2018-05-10T03:58:38.202Z,82.80
2018-05-10T04:01:05.715Z,82.30
2018-05-10T04:03:55.876Z,83.00
2018-05-10T04:06:35.187Z,83.20
2018-05-10T04:09:16.332Z,84.90
2018-05-10T04:11:43.849Z,84.80
2018-05-10T04:14:12.160Z,85.80
2018-05-10T04:16:39.707Z,85.60
2018-05-10T04:19:07.281Z,84.60
2018-05-10T04:21:34.802Z,84.60
2018-05-10T04:24:03.090Z,86.70
2018-05-10T04:26:30.617Z,86.70
2018-05-10T04:28:58.138Z,87.20
2018-05-10T04:31:25.662Z,87.00
2018-05-10T04:33:53.187Z,87.30
2018-05-10T04:36:20.712Z,87.50
2018-05-10T04:38:48.259Z,87.30
2018-05-10T04:41:15.788Z,88.20
2018-05-10T04:43:43.333Z,87.40
2018-05-10T04:46:11.640Z,86.80
2018-05-10T04:48:39.167Z,86.70
2018-05-10T04:51:07.444Z,87.10
2018-05-10T04:53:35.745Z,87.30
2018-05-10T04:56:03.255Z,87.20
2018-05-10T04:58:30.796Z,87.70
2018-05-10T05:00:58.423Z,86.30
2018-05-10T05:03:25.999Z,85.70
2018-05-10T05:05:53.503Z,86.60
2018-05-10T05:08:21.783Z,87.20
2018-05-10T05:10:50.076Z,87.20
2018-05-10T05:13:17.592Z,87.10
2018-05-10T05:15:45.131Z,86.90
2018-05-10T05:18:12.644Z,86.90
2018-05-10T05:20:40.217Z,87.70
2018-05-10T05:23:07.752Z,87.60
2018-05-10T05:25:36.040Z,85.80
2018-05-10T05:28:03.556Z,85.60
2018-05-10T05:30:31.860Z,85.30
2018-05-10T05:32:59.391Z,85.20
2018-05-10T05:35:26.914Z,86.60
2018-05-10T05:37:54.443Z,87.00
2018-05-10T05:40:21.963Z,86.20
2018-05-10T05:42:50.847Z,86.30
2018-05-10T05:45:19.131Z,87.40
2018-05-10T05:47:47.425Z,87.20
2018-05-10T05:50:17.533Z,87.10
2018-05-10T05:52:45.824Z,87.30
2018-05-10T05:55:13.480Z,87.30
2018-05-10T05:57:41.884Z,88.00
2018-05-10T06:00:09.436Z,88.10
2018-05-10T06:02:36.947Z,87.90
2018-05-10T06:05:04.491Z,87.90
2018-05-10T06:07:33.529Z,87.10
2018-05-10T06:10:01.196Z,87.10
2018-05-10T06:12:28.737Z,86.30
2018-05-10T06:14:57.065Z,86.90
2018-05-10T06:17:24.615Z,86.90
2018-05-10T06:19:52.138Z,86.60
2018-05-10T06:22:19.686Z,86.80
2018-05-10T06:24:48.095Z,87.20
2018-05-10T06:27:15.753Z,87.20
2018-05-10T06:29:43.276Z,87.30
2018-05-10T06:32:11.580Z,87.10
2018-05-10T06:34:39.137Z,87.10
2018-05-10T06:37:06.680Z,87.40
2018-05-10T06:39:34.204Z,86.30
2018-05-10T06:42:01.751Z,86.50
2018-05-10T06:44:29.340Z,85.90
2018-05-10T06:46:57.790Z,86.50
2018-05-10T06:49:25.325Z,86.50
2018-05-10T06:51:52.856Z,86.90
2018-05-10T06:54:20.491Z,86.80
2018-05-10T06:56:48.787Z,86.20
2018-05-10T06:59:16.322Z,86.10
2018-05-10T07:01:44.643Z,86.70
2018-05-10T07:04:14.184Z,86.70
2018-05-10T07:06:43.234Z,86.20
2018-05-10T07:09:10.805Z,86.10
2018-05-10T07:11:38.344Z,86.80
2018-05-10T07:14:05.886Z,87.40
2018-05-10T07:16:33.408Z,87.70
2018-05-10T07:19:02.474Z,88.30
2018-05-10T07:21:30.073Z,88.20
2018-05-10T07:23:58.593Z,88.70
2018-05-10T07:26:26.216Z,88.60
2018-05-10T07:28:54.624Z,87.80
2018-05-10T07:31:22.146Z,87.80
2018-05-10T07:33:49.669Z,87.00
2018-05-10T07:36:17.291Z,86.60
2018-05-10T07:38:44.844Z,87.50
2018-05-10T07:41:12.397Z,87.50
2018-05-10T07:43:40.793Z,87.30
2018-05-10T07:46:08.402Z,87.30
2018-05-10T07:48:36.000Z,87.30
2018-05-10T07:51:03.576Z,87.40
2018-05-10T07:53:31.120Z,86.60
2018-05-10T07:55:58.789Z,86.60
2018-05-10T07:58:26.344Z,88.20
2018-05-10T08:00:53.892Z,87.30
2018-05-10T08:03:21.559Z,87.10
2018-05-10T08:05:49.091Z,87.10
2018-05-10T08:08:17.432Z,87.70
2018-05-10T08:10:45.062Z,87.60
2018-05-10T08:13:12.649Z,88.00
2018-05-10T08:15:40.208Z,88.70
2018-05-10T08:18:07.736Z,88.90
2018-05-10T08:20:35.295Z,89.20
2018-05-10T08:23:02.824Z,89.30
2018-05-10T08:25:31.235Z,88.80
2018-05-10T08:27:58.764Z,88.80
2018-05-10T08:30:26.334Z,88.90
2018-05-10T08:32:53.876Z,89.10
2018-05-10T08:35:22.175Z,89.10
2018-05-10T08:37:49.731Z,89.00
2018-05-10T08:40:17.265Z,88.80
2018-05-10T08:42:45.604Z,89.00
2018-05-10T08:45:13.151Z,89.00
2018-05-10T08:47:40.693Z,88.60
2018-05-10T08:50:08.342Z,87.90
2018-05-10T08:52:35.912Z,88.10
2018-05-10T08:55:03.444Z,88.30
2018-05-10T08:57:31.001Z,88.30
2018-05-10T08:59:58.557Z,88.70
2018-05-10T09:02:26.123Z,88.10
2018-05-10T09:04:53.655Z,89.10
2018-05-10T09:07:22.052Z,87.40
2018-05-10T09:09:49.538Z,87.40
2018-05-10T09:12:17.089Z,87.30
2018-05-10T09:14:44.646Z,87.50
2018-05-10T09:17:12.209Z,87.00
2018-05-10T09:19:39.818Z,87.30
2018-05-10T09:22:08.120Z,87.80
2018-05-10T09:24:35.661Z,87.80
2018-05-10T09:27:03.951Z,86.90
2018-05-10T09:29:31.484Z,86.70
2018-05-10T09:31:59.768Z,86.80
2018-05-10T09:34:28.109Z,85.70
2018-05-10T09:36:55.646Z,85.70
2018-05-10T09:39:23.195Z,84.90
2018-05-10T09:41:50.728Z,85.40
2018-05-10T09:44:18.251Z,84.90
2018-05-10T09:46:45.781Z,85.10
2018-05-10T09:49:13.340Z,84.90
2018-05-10T09:51:40.976Z,84.50
2018-05-10T09:54:08.621Z,84.60
2018-05-10T09:56:36.154Z,83.10
2018-05-10T09:59:04.510Z,83.30
2018-05-10T10:01:32.053Z,83.30
2018-05-10T10:03:59.704Z,83.00
2018-05-10T10:06:27.261Z,82.80
2018-05-10T10:08:54.905Z,81.60
2018-05-10T10:11:22.447Z,81.00
2018-05-10T10:13:50.037Z,81.60
2018-05-10T10:16:17.593Z,81.50
2018-05-10T10:18:45.130Z,81.90
2018-05-10T10:21:12.651Z,81.50
2018-05-10T10:23:40.967Z,79.50
2018-05-10T10:26:08.509Z,79.50
2018-05-10T10:28:36.079Z,79.30
2018-05-10T10:31:03.610Z,78.30
2018-05-10T10:33:31.985Z,78.60
2018-05-10T10:36:00.369Z,76.60
2018-05-10T10:38:28.682Z,77.60
2018-05-10T10:40:56.214Z,77.60
2018-05-10T10:43:23.730Z,78.00
2018-05-10T10:45:51.269Z,76.00
2018-05-10T10:48:18.918Z,79.30
2018-05-10T10:50:46.462Z,80.20
2018-05-10T10:53:14.022Z,78.40
2018-05-10T10:55:41.544Z,79.10
2018-05-10T10:58:09.828Z,78.50
2018-05-10T11:00:38.125Z,78.70
2018-05-10T11:03:05.699Z,78.60
2018-05-10T11:05:33.262Z,78.30
2018-05-10T11:08:00.907Z,77.10
2018-05-10T11:10:28.386Z,76.00
2018-05-10T11:12:56.032Z,79.10
2018-05-10T11:15:24.331Z,74.90
2018-05-10T11:17:51.935Z,74.90
2018-05-10T11:20:19.498Z,76.20
2018-05-10T11:22:47.043Z,74.10
2018-05-10T11:25:15.460Z,72.30
2018-05-10T11:27:43.080Z,72.20
2018-05-10T11:30:11.381Z,67.00
2018-05-10T11:32:38.950Z,67.00
2018-05-10T11:35:06.503Z,66.10
2018-05-10T11:37:34.074Z,66.50
2018-05-10T11:40:01.676Z,67.30
2018-05-10T11:42:29.973Z,64.50
2018-05-10T11:44:57.579Z,64.50
2018-05-10T11:47:25.117Z,59.80
2018-05-10T11:49:52.673Z,63.70
2018-05-10T11:52:20.300Z,64.50
2018-05-10T11:54:48.610Z,64.40
2018-05-10T11:57:16.164Z,64.40
2018-05-10T11:59:43.704Z,66.30
2018-05-10T12:02:11.272Z,63.20
2018-05-10T12:04:38.806Z,57.80
2018-05-10T12:07:07.119Z,56.80
2018-05-10T12:09:34.969Z,56.80
2018-05-10T12:12:03.236Z,60.50
2018-05-10T12:14:30.840Z,59.70
2018-05-10T12:16:58.355Z,62.70
2018-05-10T12:19:25.896Z,61.00
2018-05-10T12:21:54.227Z,63.10
2018-05-10T12:24:23.432Z,63.20
2018-05-10T12:26:51.045Z,63.90
2018-05-10T12:29:18.582Z,62.60
2018-05-10T12:31:46.877Z,64.50
2018-05-10T12:34:14.414Z,64.50
2018-05-10T12:36:42.722Z,66.10
2018-05-10T12:39:10.270Z,66.10
2018-05-10T12:41:37.885Z,67.00
2018-05-10T12:44:05.365Z,69.30
2018-05-10T12:46:33.686Z,67.80
2018-05-10T12:49:01.207Z,67.70
2018-05-10T12:51:28.744Z,68.70
2018-05-10T12:53:57.037Z,70.10
2018-05-10T12:56:24.684Z,70.10
2018-05-10T12:58:52.166Z,69.60
2018-05-10T13:01:19.717Z,71.70
2018-05-10T13:03:47.274Z,71.10
2018-05-10T13:06:14.796Z,69.50
2018-05-10T13:08:42.360Z,69.30
2018-05-10T13:11:10.668Z,70.70
2018-05-10T13:13:38.240Z,70.60
2018-05-10T13:16:05.796Z,70.80
2018-05-10T13:18:33.357Z,69.40
2018-05-10T13:21:00.925Z,70.20
2018-05-10T13:23:28.586Z,70.60
2018-05-10T13:25:56.165Z,72.10
2018-05-10T13:28:23.688Z,68.90
2018-05-10T13:30:51.254Z,70.90
2018-05-10T13:33:18.784Z,71.50
2018-05-10T13:35:46.384Z,73.90
2018-05-10T13:38:13.959Z,72.00
2018-05-10T13:40:41.488Z,69.70
2018-05-10T13:43:09.073Z,70.40
2018-05-10T13:45:36.793Z,70.50
2018-05-10T13:48:04.349Z,70.40
2018-05-10T13:50:31.893Z,69.80
2018-05-10T13:53:02.126Z,68.90
2018-05-10T13:55:29.704Z,68.90
2018-05-10T13:57:57.277Z,72.70
2018-05-10T14:00:24.803Z,72.30
2018-05-10T14:02:52.337Z,73.20
2018-05-10T14:05:20.659Z,77.30
2018-05-10T14:07:48.194Z,77.30
2018-05-10T14:10:15.730Z,78.90
2018-05-10T14:12:43.358Z,78.30
2018-05-10T14:15:10.940Z,76.50
2018-05-10T14:17:39.279Z,76.00
2018-05-10T14:20:06.812Z,76.00
2018-05-10T14:22:34.358Z,76.70
2018-05-10T14:25:01.905Z,76.90
2018-05-10T14:27:29.456Z,76.70
2018-05-10T14:29:57.777Z,76.00
2018-05-10T14:32:25.331Z,76.00
2018-05-10T14:34:53.188Z,76.80
2018-05-10T14:37:20.733Z,78.80
2018-05-10T14:39:48.286Z,75.10
2018-05-10T14:42:15.838Z,76.40
2018-05-10T14:44:43.365Z,75.80
2018-05-10T14:47:11.055Z,75.80
2018-05-10T14:49:38.582Z,74.90
2018-05-10T14:52:06.140Z,75.50
2018-05-10T14:54:33.679Z,74.70
2018-05-10T14:57:01.210Z,74.20
2018-05-10T14:59:28.814Z,76.60
2018-05-10T15:01:57.119Z,74.60
2018-05-10T15:04:24.681Z,74.50
2018-05-10T15:06:52.214Z,73.80
2018-05-10T15:09:20.525Z,73.70
2018-05-10T15:11:48.095Z,73.70
2018-05-10T15:14:15.629Z,74.90
2018-05-10T15:16:43.174Z,75.90
2018-05-10T15:19:11.484Z,74.20
2018-05-10T15:21:39.016Z,74.30
2018-05-10T15:24:06.566Z,73.90
2018-05-10T15:26:34.869Z,74.60
2018-05-10T15:29:02.407Z,74.50
2018-05-10T15:31:30.078Z,75.00
2018-05-10T15:33:57.609Z,75.00
2018-05-10T15:36:25.939Z,73.80
2018-05-10T15:38:53.461Z,73.70
2018-05-10T15:41:20.992Z,73.70
2018-05-10T15:43:49.278Z,74.00
2018-05-10T15:46:17.617Z,73.20
2018-05-10T15:48:45.165Z,73.10
2018-05-10T15:51:12.702Z,73.40
2018-05-10T15:53:40.235Z,74.00
2018-05-10T15:56:07.768Z,73.20
2018-05-10T15:58:36.083Z,72.30
2018-05-10T16:01:03.628Z,72.90
2018-05-10T16:03:31.152Z,73.60
2018-05-10T16:05:58.706Z,73.10
2018-05-10T16:08:26.243Z,73.60
2018-05-10T16:10:55.517Z,74.10
2018-05-10T16:13:23.033Z,73.50
2018-05-10T16:15:51.364Z,76.10
2018-05-10T16:18:19.084Z,76.00
2018-05-10T16:20:47.424Z,74.10
2018-05-10T16:23:14.979Z,74.10
2018-05-10T16:25:42.696Z,74.40
2018-05-10T16:28:10.244Z,75.60
2018-05-10T16:30:38.233Z,74.90
2018-05-10T16:33:05.781Z,75.00
2018-05-10T16:35:33.301Z,74.90
2018-05-10T16:38:00.845Z,74.50
2018-05-10T16:40:29.148Z,75.30
2018-05-10T16:42:57.495Z,75.20
2018-05-10T16:45:25.822Z,76.20
2018-05-10T16:47:54.189Z,75.60
2018-05-10T16:50:21.905Z,74.90
2018-05-10T16:52:49.430Z,76.60
2018-05-10T16:55:17.000Z,74.90
2018-05-10T16:57:44.693Z,75.80
2018-05-10T17:00:12.287Z,76.40
2018-05-10T17:02:40.606Z,77.30
2018-05-10T17:05:08.152Z,77.20
2018-05-10T17:07:35.733Z,76.60
2018-05-10T17:10:03.270Z,76.50
2018-05-10T17:12:30.845Z,77.00
2018-05-10T17:14:58.362Z,76.20
2018-05-10T17:17:26.056Z,76.40
2018-05-10T17:19:53.631Z,76.20
2018-05-10T17:22:21.209Z,76.20
2018-05-10T17:24:48.761Z,76.20
2018-05-10T17:27:16.312Z,76.40
2018-05-10T17:29:43.927Z,75.80
2018-05-10T17:32:11.475Z,76.00
2018-05-10T17:34:39.064Z,76.10
2018-05-10T17:37:06.647Z,75.70
2018-05-10T17:39:36.916Z,77.80
2018-05-10T17:42:04.700Z,77.80
2018-05-10T17:44:32.362Z,76.30
2018-05-10T17:46:59.926Z,78.20
2018-05-10T17:49:27.491Z,76.90
2018-05-10T17:51:55.051Z,78.20
2018-05-10T17:54:22.688Z,78.70
2018-05-10T17:56:50.253Z,78.60
2018-05-10T17:59:17.814Z,79.70
2018-05-10T18:01:45.385Z,77.70
2018-05-10T18:04:12.940Z,77.30
2018-05-10T18:06:40.496Z,77.10
2018-05-10T18:09:08.080Z,77.00
2018-05-10T18:11:35.672Z,77.30
2018-05-10T18:14:03.329Z,78.10
2018-05-10T18:16:30.926Z,77.10
2018-05-10T18:18:58.553Z,79.20
2018-05-10T18:21:27.736Z,78.20
2018-05-10T18:23:56.067Z,78.50
2018-05-10T18:26:23.623Z,78.50
2018-05-10T18:28:51.942Z,77.50
2018-05-10T18:31:19.495Z,78.90
2018-05-10T18:33:47.888Z,79.50
2018-05-10T18:36:15.472Z,79.50
2018-05-10T18:38:43.050Z,77.80
2018-05-10T18:41:10.607Z,77.70
2018-05-10T18:43:38.459Z,77.20
2018-05-10T18:46:06.121Z,76.70
2018-05-10T18:48:33.779Z,77.20
2018-05-10T18:51:01.320Z,77.10
2018-05-10T18:53:28.881Z,77.30
2018-05-10T18:55:56.408Z,78.70
2018-05-10T18:58:24.736Z,79.30
2018-05-10T19:00:52.464Z,79.30
2018-05-10T19:03:20.060Z,80.10
2018-05-10T19:05:47.736Z,79.60
2018-05-10T19:08:16.079Z,82.60
2018-05-10T19:10:43.720Z,82.00
2018-05-10T19:13:11.277Z,82.20
2018-05-10T19:15:38.829Z,82.30
2018-05-10T19:18:06.363Z,83.00
2018-05-10T19:20:33.935Z,82.50
2018-05-10T19:23:03.413Z,83.00
2018-05-10T19:25:30.993Z,82.90
2018-05-10T19:27:59.503Z,83.10
2018-05-10T19:30:27.235Z,83.00
2018-05-10T19:32:55.596Z,83.10
2018-05-10T19:35:23.162Z,83.10
2018-05-10T19:37:50.771Z,83.80
2018-05-10T19:40:18.375Z,83.60
2018-05-10T19:42:45.945Z,83.90
2018-05-10T19:45:14.450Z,84.00
2018-05-10T19:47:41.962Z,84.00
2018-05-10T19:50:09.551Z,84.30
2018-05-10T19:52:37.955Z,84.30
2018-05-10T19:55:05.549Z,84.30
2018-05-10T19:57:33.123Z,84.40
2018-05-10T20:00:00.714Z,84.70
2018-05-10T20:02:28.263Z,85.10
2018-05-10T20:04:56.558Z,85.00
2018-05-10T20:07:24.117Z,85.00
2018-05-10T20:09:51.655Z,85.60
2018-05-10T20:12:20.041Z,85.40
2018-05-10T20:14:47.824Z,85.40
2018-05-10T20:17:15.423Z,85.60
2018-05-10T20:19:42.975Z,85.80
2018-05-10T20:22:12.050Z,85.60
2018-05-10T20:24:39.800Z,85.60
2018-05-10T20:27:07.365Z,85.90
2018-05-10T20:29:34.894Z,86.00
2018-05-10T20:32:02.496Z,86.30
2018-05-10T20:34:30.047Z,86.40
2018-05-10T20:36:57.582Z,86.00
2018-05-10T20:39:26.182Z,86.20
2018-05-10T20:41:53.712Z,86.00
2018-05-10T20:44:21.243Z,86.00
2018-05-10T20:46:49.593Z,86.10
2018-05-10T20:49:17.121Z,86.00
2018-05-10T20:51:44.686Z,86.70
2018-05-10T20:54:12.232Z,86.30
2018-05-10T20:56:39.783Z,86.70
2018-05-10T20:59:07.319Z,86.90
2018-05-10T21:01:35.610Z,87.20
2018-05-10T21:04:03.212Z,87.20
2018-05-10T21:06:30.752Z,88.10
2018-05-10T21:08:58.284Z,88.10
2018-05-10T21:11:25.849Z,88.10
2018-05-10T21:13:53.393Z,88.20
2018-05-10T21:16:21.026Z,88.30
2018-05-10T21:18:48.632Z,88.70
2018-05-10T21:21:16.887Z,89.40
2018-05-10T21:23:44.436Z,88.70
2018-05-10T21:26:12.025Z,87.90
2018-05-10T21:28:39.554Z,88.50
2018-05-10T21:31:07.105Z,89.00
2018-05-10T21:33:34.633Z,88.90
2018-05-10T21:36:02.160Z,88.70
2018-05-10T21:38:29.688Z,88.60
2018-05-10T21:40:57.260Z,88.80
2018-05-10T21:43:24.824Z,89.00
2018-05-10T21:45:52.361Z,88.80
2018-05-10T21:48:20.850Z,89.10
2018-05-10T21:50:48.380Z,89.00
2018-05-10T21:53:16.714Z,88.80
2018-05-10T21:55:44.230Z,88.80
2018-05-10T21:58:11.807Z,89.10
2018-05-10T22:00:39.317Z,89.00
2018-05-10T22:03:07.640Z,89.00
2018-05-10T22:05:35.186Z,88.30
2018-05-10T22:08:02.734Z,88.20
2018-05-10T22:10:30.311Z,87.90
2018-05-10T22:12:57.838Z,87.80
2018-05-10T22:15:25.389Z,88.20
2018-05-10T22:17:53.705Z,88.30
2018-05-10T22:20:21.263Z,88.30
2018-05-10T22:22:48.797Z,88.40
2018-05-10T22:25:16.496Z,89.70
2018-05-10T22:27:44.093Z,88.90
2018-05-10T22:30:12.371Z,88.30
2018-05-10T22:32:40.676Z,89.10
2018-05-10T22:35:08.309Z,89.10
2018-05-10T22:37:35.785Z,89.10
2018-05-10T22:40:03.308Z,88.70
2018-05-10T22:42:30.833Z,88.20
2018-05-10T22:44:58.356Z,88.60
2018-05-10T22:47:25.903Z,87.50
2018-05-10T22:49:54.224Z,88.20
2018-05-10T22:52:21.857Z,88.20
2018-05-10T22:54:49.392Z,88.80
2018-05-10T22:57:17.702Z,89.50
2018-05-10T22:59:45.267Z,89.40
2018-05-10T23:02:12.846Z,88.40
2018-05-10T23:04:40.364Z,87.90
2018-05-10T23:07:08.012Z,87.90
2018-05-10T23:09:35.626Z,87.40
2018-05-10T23:12:03.163Z,87.50
2018-05-10T23:14:30.702Z,87.50
2018-05-10T23:16:59.188Z,87.40
2018-05-10T23:19:26.704Z,87.90
2018-05-10T23:21:54.996Z,87.90
2018-05-10T23:24:22.589Z,87.80
2018-05-10T23:26:50.120Z,87.50
2018-05-10T23:29:17.632Z,88.10
2018-05-10T23:31:45.143Z,87.60
2018-05-10T23:34:12.677Z,87.80
2018-05-10T23:36:40.237Z,88.00
2018-05-10T23:39:07.751Z,87.50
2018-05-10T23:41:35.293Z,87.40
2018-05-10T23:44:02.803Z,87.70
2018-05-10T23:46:31.111Z,87.60
2018-05-10T23:48:58.624Z,87.60
2018-05-10T23:51:26.922Z,88.10
2018-05-10T23:53:54.568Z,88.10
2018-05-10T23:56:23.028Z,88.50
2018-05-10T23:58:50.549Z,88.50
